CheckWX is a tool to help pilots better visualize weather data.  It is not intended as a substitute for an official pre-flight weather briefing.

07:48:46 UTC

CYSF TAF
Stony Rapids Airport
Stony Rapids, Canada
TAF CYSF 150538Z 1506/1518 VRB03KT P6SM FEW015 BKN070 TEMPO 1506/1509 6SM -SHRA BR BKN015 OVC030 FM150900 25005KT P6SM SCT006 OVC015 TEMPO 1509/1516 4SM -SHRA BR BKN006 OVC015 FM151600 28008KT P6SM BKN015 TEMPO 1516/1518 BKN025 RMK FCST BASED ON AUTO OBS. NXT FCST BY 151200Z

Sep-15@
06:00 UTC

Sep-15 @ 06:00 UTC

Sep-15@
09:00 UTC

Sep-15 @ 09:00 UTC

TAF CYSF 150538Z 1506/1518 VRB03KT P6SM FEW015 BKN070
Wind
  • Variable at 3 KTS
Cloud Levels
  • Few at 1,500' AGL
  • Broken at 7,000' AGL

Sep-15@
06:00 UTC

Sep-15 @ 06:00 UTC

Sep-15@
09:00 UTC

Sep-15 @ 09:00 UTC

TEMPO 1506/1509 6SM -SHRA BR BKN015 OVC030

Temporary

Temporary Changes expected for less than half the time period

Conditions
Light Rain, Mist
Cloud Levels
  • Broken at 1,500' AGL
  • Overcast at 3,000' AGL

Sep-15@
09:00 UTC

Sep-15 @ 09:00 UTC

Sep-15@
16:00 UTC

Sep-15 @ 16:00 UTC

TEMPO 1509/1516 4SM -SHRA BR BKN006 OVC015

Temporary

Temporary Changes expected for less than half the time period

Conditions
Light Rain, Mist
Cloud Levels
  • Broken at 600' AGL
  • Overcast at 1,500' AGL

Sep-15@
09:00 UTC

Sep-15 @ 09:00 UTC

Sep-15@
16:00 UTC

Sep-15 @ 16:00 UTC

FM150900 25005KT P6SM SCT006 OVC015

From

From Standard forecast or significant change

Wind
  • 250° at 5 KTS
Cloud Levels
  • Scattered at 600' AGL
  • Overcast at 1,500' AGL

Sep-15@
16:00 UTC

Sep-15 @ 16:00 UTC

Sep-15@
18:00 UTC

Sep-15 @ 18:00 UTC

TEMPO 1516/1518 BKN025 RMK FCST BASED ON AUTO OBS. NXT FCST BY 151200Z

Temporary

Temporary Changes expected for less than half the time period

Cloud Levels
  • Broken at 2,500' AGL

Sep-15@
16:00 UTC

Sep-15 @ 16:00 UTC

Sep-15@
18:00 UTC

Sep-15 @ 18:00 UTC

FM151600 28008KT P6SM BKN015

From

From Standard forecast or significant change

Wind
  • 280° at 8 KTS
Cloud Levels
  • Broken at 1,500' AGL